createdAt,value
2023-01-11T00:00:52.045Z,990.96
2023-01-11T00:01:53.851Z,990.97
2023-01-11T00:02:55.511Z,990.92
2023-01-11T00:03:57.257Z,990.92
2023-01-11T00:04:59.012Z,990.93
2023-01-11T00:06:00.708Z,990.88
2023-01-11T00:07:02.416Z,990.89
2023-01-11T00:08:04.195Z,990.88
2023-01-11T00:09:05.929Z,990.84
2023-01-11T00:10:07.672Z,990.82
2023-01-11T00:11:09.393Z,990.78
2023-01-11T00:12:11.108Z,990.77
2023-01-11T00:13:12.837Z,990.81
2023-01-11T00:14:14.563Z,990.83
2023-01-11T00:15:16.299Z,990.8
2023-01-11T00:16:18.152Z,990.82
2023-01-11T00:17:19.811Z,990.8
2023-01-11T00:18:21.523Z,990.81
2023-01-11T00:19:23.269Z,990.77
2023-01-11T00:20:25.015Z,990.74
2023-01-11T00:21:26.803Z,990.67
2023-01-11T00:22:28.429Z,990.75
2023-01-11T00:23:30.171Z,990.75
2023-01-11T00:24:31.949Z,990.75
2023-01-11T00:25:33.673Z,990.78
2023-01-11T00:26:35.415Z,990.71
2023-01-11T00:27:37.136Z,990.69
2023-01-11T00:28:38.838Z,990.7
2023-01-11T00:29:40.574Z,990.61
2023-01-11T00:30:42.295Z,990.61
2023-01-11T00:31:44.076Z,990.68
2023-01-11T00:32:45.790Z,990.63
2023-01-11T00:33:47.539Z,990.6
2023-01-11T00:34:49.326Z,990.56
2023-01-11T00:35:50.986Z,990.53
2023-01-11T00:36:52.755Z,990.51
2023-01-11T00:37:54.475Z,990.41
2023-01-11T00:38:56.205Z,990.4
2023-01-11T00:39:57.905Z,990.42
2023-01-11T00:40:59.670Z,990.45
2023-01-11T00:42:01.379Z,990.38
2023-01-11T00:43:03.128Z,990.39
2023-01-11T00:44:04.882Z,990.41
2023-01-11T00:45:06.597Z,990.35
2023-01-11T00:46:08.400Z,990.3
2023-01-11T00:47:10.035Z,990.27
2023-01-11T00:48:11.796Z,990.18
2023-01-11T00:49:13.521Z,990.23
2023-01-11T00:50:15.257Z,990.23
2023-01-11T00:51:17.003Z,990.23
2023-01-11T00:52:18.713Z,990.19
2023-01-11T00:53:20.476Z,990.12
2023-01-11T00:54:22.190Z,990.19
2023-01-11T00:55:23.963Z,990.16
2023-01-11T00:56:25.673Z,990.16
2023-01-11T00:57:27.427Z,990.14
2023-01-11T00:58:29.111Z,990.12
2023-01-11T00:59:30.879Z,990.14
2023-01-11T01:00:32.594Z,990.15
2023-01-11T01:01:34.437Z,990.2
2023-01-11T01:02:36.150Z,990.25
2023-01-11T01:03:37.819Z,990.19
2023-01-11T01:04:39.535Z,990.19
2023-01-11T01:05:41.325Z,990.09
2023-01-11T01:06:43.056Z,990.14
2023-01-11T01:07:44.759Z,990.12
2023-01-11T01:08:46.491Z,990.11
2023-01-11T01:09:48.197Z,990.05
2023-01-11T01:10:49.943Z,990.04
2023-01-11T01:11:51.659Z,990.1
2023-01-11T01:12:53.430Z,990.12
2023-01-11T01:13:55.174Z,990.08
2023-01-11T01:14:56.892Z,990.1
2023-01-11T01:15:58.690Z,990.13
2023-01-11T01:17:00.364Z,990.15
2023-01-11T01:18:02.070Z,990.17
2023-01-11T01:19:03.835Z,990.17
2023-01-11T01:20:05.560Z,990.18
2023-01-11T01:21:07.282Z,990.12
2023-01-11T01:22:08.997Z,990.19
2023-01-11T01:23:10.762Z,990.11
2023-01-11T01:24:12.495Z,990.12
2023-01-11T01:25:14.201Z,990.09
2023-01-11T01:26:15.961Z,990.11
2023-01-11T01:27:17.674Z,990.1
2023-01-11T01:28:19.414Z,990.09
2023-01-11T01:29:21.198Z,990.11
2023-01-11T01:30:22.889Z,990.16
2023-01-11T01:31:24.703Z,990.11
2023-01-11T01:32:26.366Z,990.09
2023-01-11T01:33:28.106Z,990.08
2023-01-11T01:34:29.828Z,990.09
2023-01-11T01:35:31.535Z,990.11
2023-01-11T01:36:33.276Z,990.1
2023-01-11T01:37:35.055Z,990.15
2023-01-11T01:38:36.755Z,990.1
2023-01-11T01:39:38.516Z,990.09
2023-01-11T01:40:40.198Z,990.06
2023-01-11T01:41:41.979Z,990.06
2023-01-11T01:42:43.703Z,990.04
2023-01-11T01:43:47.480Z,990.04
2023-01-11T01:44:47.164Z,990
2023-01-11T01:45:48.940Z,990.02
2023-01-11T01:46:50.615Z,990
2023-01-11T01:47:52.380Z,989.97
2023-01-11T01:48:54.098Z,990.01
2023-01-11T01:49:55.858Z,990.01
2023-01-11T01:50:57.539Z,990.01
2023-01-11T01:51:59.273Z,989.97
2023-01-11T01:53:01.015Z,990.07
2023-01-11T01:54:02.770Z,990.05
2023-01-11T01:55:04.505Z,990.04
2023-01-11T01:56:06.264Z,990
2023-01-11T01:57:07.996Z,990.03
2023-01-11T01:58:09.692Z,989.99
2023-01-11T01:59:11.426Z,989.96
2023-01-11T02:00:13.193Z,990.01
2023-01-11T02:01:14.928Z,989.99
2023-01-11T02:02:16.612Z,990
2023-01-11T02:03:18.388Z,989.95
2023-01-11T02:04:20.121Z,989.95
2023-01-11T02:05:21.866Z,989.97
2023-01-11T02:06:23.572Z,989.93
2023-01-11T02:07:25.295Z,989.93
2023-01-11T02:08:27.033Z,989.89
2023-01-11T02:09:28.875Z,989.91
2023-01-11T02:10:30.528Z,989.89
2023-01-11T02:11:32.235Z,989.89
2023-01-11T02:12:33.961Z,989.87
2023-01-11T02:13:35.724Z,989.88
2023-01-11T02:14:37.425Z,989.8
2023-01-11T02:15:39.260Z,989.84
2023-01-11T02:16:40.927Z,989.81
2023-01-11T02:17:42.676Z,989.8
2023-01-11T02:18:44.374Z,989.8
2023-01-11T02:19:46.123Z,989.84
2023-01-11T02:20:47.852Z,989.77
2023-01-11T02:21:49.599Z,989.77
2023-01-11T02:22:51.315Z,989.77
2023-01-11T02:23:53.028Z,989.77
2023-01-11T02:24:54.803Z,989.74
2023-01-11T02:25:56.527Z,989.7
2023-01-11T02:26:58.229Z,989.71
2023-01-11T02:27:59.957Z,989.7
2023-01-11T02:29:01.729Z,989.67
2023-01-11T02:30:03.457Z,989.73
2023-01-11T02:31:05.231Z,989.68
2023-01-11T02:32:06.895Z,989.68
2023-01-11T02:33:08.626Z,989.66
2023-01-11T02:34:10.379Z,989.64
2023-01-11T02:35:12.105Z,989.67
2023-01-11T02:36:13.879Z,989.62
2023-01-11T02:37:15.613Z,989.59
2023-01-11T02:38:17.300Z,989.59
2023-01-11T02:39:19.029Z,989.63
2023-01-11T02:40:21.371Z,989.62
2023-01-11T02:41:22.506Z,989.51
2023-01-11T02:42:24.249Z,989.55
2023-01-11T02:43:25.980Z,989.54
2023-01-11T02:44:27.735Z,989.47
2023-01-11T02:45:29.438Z,989.53
2023-01-11T02:46:31.223Z,989.52
2023-01-11T02:47:32.933Z,989.51
2023-01-11T02:48:34.662Z,989.51
2023-01-11T02:49:36.407Z,989.48
2023-01-11T02:50:38.123Z,989.45
2023-01-11T02:51:39.858Z,989.49
2023-01-11T02:52:41.571Z,989.47
2023-01-11T02:53:43.307Z,989.47
2023-01-11T02:54:45.098Z,989.47
2023-01-11T02:55:46.769Z,989.49
2023-01-11T02:56:48.506Z,989.45
2023-01-11T02:57:50.240Z,989.45
2023-01-11T02:58:51.981Z,989.41
2023-01-11T02:59:53.697Z,989.43
2023-01-11T03:00:55.489Z,989.45
2023-01-11T03:01:57.214Z,989.41
2023-01-11T03:02:58.934Z,989.4
2023-01-11T03:04:00.642Z,989.47
2023-01-11T03:05:02.431Z,989.43
2023-01-11T03:06:04.146Z,989.38
2023-01-11T03:07:05.845Z,989.4
2023-01-11T03:08:07.580Z,989.34
2023-01-11T03:09:09.326Z,989.38
2023-01-11T03:10:11.047Z,989.35
2023-01-11T03:11:12.775Z,989.32
2023-01-11T03:12:14.535Z,989.34
2023-01-11T03:13:16.277Z,989.28
2023-01-11T03:14:17.977Z,989.27
2023-01-11T03:15:19.711Z,989.28
2023-01-11T03:16:21.505Z,989.27
2023-01-11T03:17:23.175Z,989.28
2023-01-11T03:18:25.082Z,989.33
2023-01-11T03:19:26.664Z,989.25
2023-01-11T03:20:28.405Z,989.28
2023-01-11T03:21:30.127Z,989.31
2023-01-11T03:22:31.850Z,989.28
2023-01-11T03:23:33.615Z,989.24
2023-01-11T03:24:35.325Z,989.22
2023-01-11T03:25:37.028Z,989.24
2023-01-11T03:26:38.747Z,989.14
2023-01-11T03:27:40.479Z,989.16
2023-01-11T03:28:42.204Z,989.15
2023-01-11T03:29:43.957Z,989.21
2023-01-11T03:30:45.670Z,989.18
2023-01-11T03:31:47.427Z,989.17
2023-01-11T03:32:49.176Z,989.18
2023-01-11T03:33:50.902Z,989.14
2023-01-11T03:34:52.602Z,989.13
2023-01-11T03:35:54.393Z,989.13
2023-01-11T03:36:56.098Z,989.13
2023-01-11T03:37:57.847Z,989.1
2023-01-11T03:38:59.549Z,989.1
2023-01-11T03:40:01.310Z,989.12
2023-01-11T03:41:03.018Z,989.03
2023-01-11T03:42:04.756Z,989.03
2023-01-11T03:43:06.501Z,989.04
2023-01-11T03:44:08.210Z,988.99
2023-01-11T03:45:09.939Z,989
2023-01-11T03:46:11.689Z,989.02
2023-01-11T03:47:13.448Z,989.02
2023-01-11T03:48:15.182Z,988.98
2023-01-11T03:49:16.919Z,989
2023-01-11T03:50:18.627Z,989.01
2023-01-11T03:51:20.353Z,988.93
2023-01-11T03:52:22.085Z,988.96
2023-01-11T03:53:23.834Z,988.99
2023-01-11T03:54:25.557Z,989
2023-01-11T03:55:27.284Z,988.96
2023-01-11T03:56:29.025Z,988.89
2023-01-11T03:57:30.774Z,988.93
2023-01-11T03:58:32.469Z,988.86
2023-01-11T03:59:34.209Z,988.87
2023-01-11T04:00:36.044Z,988.86
2023-01-11T04:01:37.714Z,988.87
2023-01-11T04:02:39.401Z,988.83
2023-01-11T04:03:41.188Z,988.81
2023-01-11T04:04:42.958Z,988.82
2023-01-11T04:05:44.632Z,988.78
2023-01-11T04:06:46.428Z,988.77
2023-01-11T04:07:48.135Z,988.72
2023-01-11T04:08:49.862Z,988.74
2023-01-11T04:09:51.577Z,988.75
2023-01-11T04:10:53.293Z,988.73
2023-01-11T04:11:55.019Z,988.66
2023-01-11T04:12:56.804Z,988.67
2023-01-11T04:13:58.554Z,988.69
2023-01-11T04:15:00.242Z,988.68
2023-01-11T04:16:02.047Z,988.69
2023-01-11T04:17:03.724Z,988.72
2023-01-11T04:18:05.442Z,988.67
2023-01-11T04:19:07.152Z,988.69
2023-01-11T04:20:09.014Z,988.67
2023-01-11T04:21:10.622Z,988.67
2023-01-11T04:22:12.345Z,988.65
2023-01-11T04:23:14.107Z,988.68
2023-01-11T04:24:15.835Z,988.66
2023-01-11T04:25:17.600Z,988.65
2023-01-11T04:26:19.300Z,988.66
2023-01-11T04:27:21.064Z,988.67
2023-01-11T04:28:22.771Z,988.67
2023-01-11T04:29:24.515Z,988.66
2023-01-11T04:30:26.238Z,988.68
2023-01-11T04:31:28.021Z,988.65
2023-01-11T04:32:29.757Z,988.61
2023-01-11T04:33:31.460Z,988.65
2023-01-11T04:34:33.165Z,988.62
2023-01-11T04:35:34.906Z,988.67
2023-01-11T04:36:36.650Z,988.58
2023-01-11T04:37:38.370Z,988.6
2023-01-11T04:38:40.148Z,988.64
2023-01-11T04:39:41.859Z,988.53
2023-01-11T04:40:43.593Z,988.61
2023-01-11T04:41:45.301Z,988.57
2023-01-11T04:42:47.072Z,988.57
2023-01-11T04:43:48.817Z,988.57
2023-01-11T04:44:50.527Z,988.55
2023-01-11T04:45:52.256Z,988.54
2023-01-11T04:46:53.964Z,988.5
2023-01-11T04:47:55.708Z,988.54
2023-01-11T04:48:57.440Z,988.52
2023-01-11T04:49:59.169Z,988.57
2023-01-11T04:51:00.945Z,988.51
2023-01-11T04:52:02.653Z,988.51
2023-01-11T04:53:04.382Z,988.44
2023-01-11T04:54:06.139Z,988.55
2023-01-11T04:55:07.849Z,988.53
2023-01-11T04:56:09.608Z,988.51
2023-01-11T04:57:11.301Z,988.5
2023-01-11T04:58:13.058Z,988.49
2023-01-11T04:59:14.797Z,988.48
2023-01-11T05:00:16.565Z,988.38
2023-01-11T05:01:18.347Z,988.47
2023-01-11T05:02:20.000Z,988.45
2023-01-11T05:03:21.718Z,988.4
2023-01-11T05:04:23.505Z,988.43
2023-01-11T05:05:25.182Z,988.46
2023-01-11T05:06:26.953Z,988.39
2023-01-11T05:07:28.653Z,988.41
2023-01-11T05:08:30.406Z,988.39
2023-01-11T05:09:32.170Z,988.44
2023-01-11T05:10:33.935Z,988.36
2023-01-11T05:11:35.569Z,988.37
2023-01-11T05:12:37.408Z,988.36
2023-01-11T05:13:39.044Z,988.27
2023-01-11T05:14:40.918Z,988.3
2023-01-11T05:15:42.506Z,988.29
2023-01-11T05:16:44.330Z,988.3
2023-01-11T05:17:45.983Z,988.25
2023-01-11T05:18:47.714Z,988.22
2023-01-11T05:19:49.450Z,988.29
2023-01-11T05:20:51.214Z,988.26
2023-01-11T05:21:52.959Z,988.28
2023-01-11T05:22:54.648Z,988.32
2023-01-11T05:23:56.397Z,988.26
2023-01-11T05:24:58.135Z,988.23
2023-01-11T05:25:59.912Z,988.26
2023-01-11T05:27:01.606Z,988.24
2023-01-11T05:28:03.318Z,988.19
2023-01-11T05:29:05.089Z,988.22
2023-01-11T05:30:06.804Z,988.26
2023-01-11T05:31:08.564Z,988.2
2023-01-11T05:32:10.260Z,988.14
2023-01-11T05:33:12.041Z,988.11
2023-01-11T05:34:13.732Z,988.09
2023-01-11T05:35:15.473Z,988.13
2023-01-11T05:36:17.233Z,988.09
2023-01-11T05:37:18.961Z,988.1
2023-01-11T05:38:23.942Z,988.07
2023-01-11T05:39:27.590Z,988.03
2023-01-11T05:40:30.708Z,987.99
2023-01-11T05:41:30.860Z,988.03
2023-01-11T05:42:33.345Z,988.01
2023-01-11T05:43:34.913Z,988
2023-01-11T05:44:36.631Z,988.03
2023-01-11T05:45:38.410Z,987.97
2023-01-11T05:46:40.144Z,987.99
2023-01-11T05:47:41.837Z,987.93
2023-01-11T05:48:43.575Z,987.96
2023-01-11T05:49:45.315Z,987.87
2023-01-11T05:50:47.057Z,987.91
2023-01-11T05:51:48.863Z,987.91
2023-01-11T05:52:50.520Z,987.9
2023-01-11T05:53:52.236Z,987.9
2023-01-11T05:54:53.973Z,987.9
2023-01-11T05:55:55.698Z,987.9
2023-01-11T05:56:57.447Z,987.82
2023-01-11T05:57:59.175Z,987.84
2023-01-11T05:59:00.919Z,987.85
2023-01-11T06:00:02.668Z,987.85
2023-01-11T06:01:04.409Z,987.8
2023-01-11T06:02:06.194Z,987.79
2023-01-11T06:03:08.007Z,987.79
2023-01-11T06:04:09.626Z,987.81
2023-01-11T06:05:11.368Z,987.75
2023-01-11T06:06:13.078Z,987.71
2023-01-11T06:07:14.809Z,987.75
2023-01-11T06:08:16.522Z,987.7
2023-01-11T06:09:18.248Z,987.71
2023-01-11T06:10:19.977Z,987.7
2023-01-11T06:11:21.736Z,987.69
2023-01-11T06:12:23.471Z,987.65
2023-01-11T06:13:25.181Z,987.6
2023-01-11T06:14:26.939Z,987.62
2023-01-11T06:15:28.664Z,987.62
2023-01-11T06:16:30.449Z,987.61
2023-01-11T06:17:32.182Z,987.62
2023-01-11T06:18:33.873Z,987.65
2023-01-11T06:19:35.591Z,987.66
2023-01-11T06:20:37.321Z,987.59
2023-01-11T06:21:39.074Z,987.61
2023-01-11T06:22:40.791Z,987.59
2023-01-11T06:23:42.608Z,987.59
2023-01-11T06:24:44.252Z,987.62
2023-01-11T06:25:46.001Z,987.54
2023-01-11T06:26:47.731Z,987.53
2023-01-11T06:27:49.478Z,987.47
2023-01-11T06:28:51.312Z,987.51
2023-01-11T06:29:52.967Z,987.49
2023-01-11T06:30:54.713Z,987.49
2023-01-11T06:31:56.424Z,987.43
2023-01-11T06:32:58.163Z,987.42
2023-01-11T06:33:59.873Z,987.45
2023-01-11T06:35:01.602Z,987.38
2023-01-11T06:36:03.328Z,987.44
2023-01-11T06:37:05.067Z,987.39
2023-01-11T06:38:06.805Z,987.42
2023-01-11T06:39:08.542Z,987.36
2023-01-11T06:40:10.312Z,987.36
2023-01-11T06:41:11.996Z,987.36
2023-01-11T06:42:13.721Z,987.39
2023-01-11T06:43:15.491Z,987.33
2023-01-11T06:44:17.210Z,987.38
2023-01-11T06:45:18.951Z,987.37
2023-01-11T06:46:20.803Z,987.37
2023-01-11T06:47:22.431Z,987.37
2023-01-11T06:48:24.184Z,987.36
2023-01-11T06:49:25.887Z,987.32
2023-01-11T06:50:27.616Z,987.37
2023-01-11T06:51:29.347Z,987.33
2023-01-11T06:52:31.135Z,987.32
2023-01-11T06:53:32.983Z,987.34
2023-01-11T06:54:34.578Z,987.34
2023-01-11T06:55:36.276Z,987.28
2023-01-11T06:56:38.039Z,987.34
2023-01-11T06:57:39.753Z,987.33
2023-01-11T06:58:41.472Z,987.34
2023-01-11T06:59:43.379Z,987.35
2023-01-11T07:00:44.952Z,987.31
2023-01-11T07:01:46.769Z,987.29
2023-01-11T07:02:48.422Z,987.34
2023-01-11T07:03:50.141Z,987.24
2023-01-11T07:04:51.992Z,987.29
2023-01-11T07:05:53.738Z,987.29
2023-01-11T07:06:55.351Z,987.35
2023-01-11T07:07:57.078Z,987.3
2023-01-11T07:08:58.823Z,987.25
2023-01-11T07:10:00.579Z,987.29
2023-01-11T07:11:02.356Z,987.19
2023-01-11T07:12:04.040Z,987.27
2023-01-11T07:13:05.779Z,987.29
2023-01-11T07:14:07.491Z,987.28
2023-01-11T07:15:09.244Z,987.27
2023-01-11T07:16:11.038Z,987.27
2023-01-11T07:17:12.749Z,987.31
2023-01-11T07:18:14.455Z,987.29
2023-01-11T07:19:16.226Z,987.32
2023-01-11T07:20:17.920Z,987.31
2023-01-11T07:21:19.809Z,987.28
2023-01-11T07:22:21.363Z,987.35
2023-01-11T07:23:23.097Z,987.32
2023-01-11T07:24:24.884Z,987.38
2023-01-11T07:25:26.564Z,987.33
2023-01-11T07:26:28.398Z,987.37
2023-01-11T07:27:30.033Z,987.45
2023-01-11T07:28:31.796Z,987.4
2023-01-11T07:29:33.501Z,987.4
2023-01-11T07:30:47.841Z,987.47
2023-01-11T07:31:37.062Z,987.43
2023-01-11T07:32:38.769Z,987.4
2023-01-11T07:33:40.458Z,987.41
2023-01-11T07:34:42.215Z,987.4
2023-01-11T07:35:43.918Z,987.45
2023-01-11T07:36:45.679Z,987.43
2023-01-11T07:37:47.392Z,987.46
2023-01-11T07:38:49.114Z,987.48
2023-01-11T07:39:50.850Z,987.4
2023-01-11T07:40:52.625Z,987.46
2023-01-11T07:41:54.349Z,987.44
2023-01-11T07:42:56.087Z,987.37
2023-01-11T07:43:57.815Z,987.41
2023-01-11T07:44:59.531Z,987.39
2023-01-11T07:46:01.334Z,987.43
2023-01-11T07:47:03.035Z,987.39
2023-01-11T07:48:04.733Z,987.38
2023-01-11T07:49:06.520Z,987.4
2023-01-11T07:50:08.297Z,987.43
2023-01-11T07:51:09.915Z,987.4
2023-01-11T07:52:11.817Z,987.39
2023-01-11T07:53:13.549Z,987.39
2023-01-11T07:54:15.133Z,987.39
2023-01-11T07:55:16.898Z,987.37
2023-01-11T07:56:18.588Z,987.34
2023-01-11T07:57:20.365Z,987.39
2023-01-11T07:58:22.069Z,987.35
2023-01-11T07:59:23.788Z,987.32
2023-01-11T08:00:25.532Z,987.35
2023-01-11T08:01:27.276Z,987.4
2023-01-11T08:02:29.174Z,987.29
2023-01-11T08:03:30.862Z,987.33
2023-01-11T08:04:32.479Z,987.38
2023-01-11T08:05:34.186Z,987.37
2023-01-11T08:06:35.942Z,987.38
2023-01-11T08:07:37.714Z,987.42
2023-01-11T08:08:39.414Z,987.41
2023-01-11T08:09:41.151Z,987.43
2023-01-11T08:10:43.249Z,987.4
2023-01-11T08:11:44.794Z,987.41
2023-01-11T08:12:46.513Z,987.4
2023-01-11T08:13:48.233Z,987.35
2023-01-11T08:14:49.991Z,987.38
2023-01-11T08:15:51.818Z,987.36
2023-01-11T08:16:53.441Z,987.39
2023-01-11T08:17:55.264Z,987.32
2023-01-11T08:18:56.943Z,987.33
2023-01-11T08:19:58.647Z,987.3
2023-01-11T08:21:00.450Z,987.35
2023-01-11T08:22:02.116Z,987.33
2023-01-11T08:23:03.854Z,987.31
2023-01-11T08:24:05.603Z,987.35
2023-01-11T08:25:07.314Z,987.31
2023-01-11T08:26:09.088Z,987.33
2023-01-11T08:27:10.891Z,987.35
2023-01-11T08:28:12.521Z,987.32
2023-01-11T08:29:14.262Z,987.36
2023-01-11T08:30:15.983Z,987.33
2023-01-11T08:31:17.750Z,987.32
2023-01-11T08:32:19.462Z,987.34
2023-01-11T08:33:21.170Z,987.34
2023-01-11T08:34:22.948Z,987.37
2023-01-11T08:35:24.657Z,987.32
2023-01-11T08:36:26.395Z,987.39
2023-01-11T08:37:28.097Z,987.36
2023-01-11T08:38:29.870Z,987.37
2023-01-11T08:39:31.578Z,987.35
2023-01-11T08:40:33.331Z,987.36
2023-01-11T08:41:35.039Z,987.37
2023-01-11T08:42:36.794Z,987.35
2023-01-11T08:43:38.526Z,987.38
2023-01-11T08:44:40.278Z,987.37
2023-01-11T08:45:41.993Z,987.32
2023-01-11T08:46:43.822Z,987.33
2023-01-11T08:47:45.449Z,987.36
2023-01-11T08:48:47.195Z,987.39
2023-01-11T08:49:48.918Z,987.34
2023-01-11T08:50:50.669Z,987.36
2023-01-11T08:51:52.436Z,987.32
2023-01-11T08:52:54.132Z,987.37
2023-01-11T08:53:56.083Z,987.36
2023-01-11T08:54:57.606Z,987.34
2023-01-11T08:55:59.356Z,987.35
2023-01-11T08:57:01.062Z,987.32
2023-01-11T08:58:02.828Z,987.36
2023-01-11T08:59:04.549Z,987.3
2023-01-11T09:00:06.279Z,987.29
2023-01-11T09:01:08.017Z,987.27
2023-01-11T09:02:09.731Z,987.29
2023-01-11T09:03:11.533Z,987.32
2023-01-11T09:04:24.243Z,987.26
2023-01-11T09:05:17.447Z,987.31
2023-01-11T09:06:16.693Z,987.29
2023-01-11T09:07:18.420Z,987.32
2023-01-11T09:08:20.156Z,987.29
2023-01-11T09:09:21.976Z,987.25
2023-01-11T09:10:23.628Z,987.26
2023-01-11T09:11:25.345Z,987.29
2023-01-11T09:12:27.076Z,987.24
2023-01-11T09:13:28.827Z,987.27
2023-01-11T09:14:30.529Z,987.27
2023-01-11T09:15:32.292Z,987.28
2023-01-11T09:16:34.095Z,987.29
2023-01-11T09:17:35.794Z,987.26
2023-01-11T09:18:37.505Z,987.23
2023-01-11T09:19:39.242Z,987.31
2023-01-11T09:20:40.963Z,987.28
2023-01-11T09:21:42.894Z,987.34
2023-01-11T09:22:44.415Z,987.3
2023-01-11T09:23:46.163Z,987.34
2023-01-11T09:24:47.886Z,987.31
2023-01-11T09:25:49.627Z,987.36
2023-01-11T09:26:51.442Z,987.29
2023-01-11T09:27:53.095Z,987.33
2023-01-11T09:28:54.873Z,987.35
2023-01-11T09:29:56.563Z,987.39
2023-01-11T09:30:58.385Z,987.37
2023-01-11T09:32:00.046Z,987.39
2023-01-11T09:33:01.789Z,987.41
2023-01-11T09:34:03.499Z,987.39
2023-01-11T09:35:05.297Z,987.38
2023-01-11T09:36:06.971Z,987.43
2023-01-11T09:37:08.701Z,987.42
2023-01-11T09:38:10.435Z,987.43
2023-01-11T09:39:12.171Z,987.46
2023-01-11T09:40:14.008Z,987.44
2023-01-11T09:41:15.669Z,987.51
2023-01-11T09:42:17.386Z,987.45
2023-01-11T09:43:19.108Z,987.45
2023-01-11T09:44:20.902Z,987.44
2023-01-11T09:45:22.570Z,987.41
2023-01-11T09:46:24.383Z,987.46
2023-01-11T09:47:26.063Z,987.48
2023-01-11T09:48:27.764Z,987.45
2023-01-11T09:49:29.512Z,987.47
2023-01-11T09:50:31.253Z,987.44
2023-01-11T09:51:32.977Z,987.49
2023-01-11T09:52:34.746Z,987.51
2023-01-11T09:53:36.451Z,987.52
2023-01-11T09:54:38.185Z,987.55
2023-01-11T09:55:39.895Z,987.51
2023-01-11T09:56:41.668Z,987.5
2023-01-11T09:57:43.481Z,987.49
2023-01-11T09:58:45.116Z,987.51
2023-01-11T09:59:46.858Z,987.54
2023-01-11T10:00:48.664Z,987.5
2023-01-11T10:01:50.314Z,987.49
2023-01-11T10:02:52.057Z,987.57
2023-01-11T10:03:53.866Z,987.47
2023-01-11T10:04:55.620Z,987.51
2023-01-11T10:05:57.300Z,987.54
2023-01-11T10:06:58.988Z,987.55
2023-01-11T10:18:29.104Z,987.45
2023-01-11T10:18:30.455Z,987.5
2023-01-11T10:18:32.086Z,987.53
2023-01-11T10:18:33.079Z,987.52
2023-01-11T10:18:40.219Z,987.51
2023-01-11T10:19:36.406Z,987.47
2023-01-11T10:20:21.580Z,987.48
2023-01-11T10:21:23.296Z,987.44
2023-01-11T10:22:25.032Z,987.49
2023-01-11T10:23:26.706Z,987.52
2023-01-11T10:24:28.483Z,987.5
2023-01-11T10:25:30.194Z,987.52
2023-01-11T10:26:31.929Z,987.59
2023-01-11T10:27:33.752Z,987.51
2023-01-11T10:28:35.386Z,987.51
2023-01-11T10:29:37.120Z,987.48
2023-01-11T10:30:41.024Z,987.45
2023-01-11T10:31:40.654Z,987.53
2023-01-11T10:32:42.330Z,987.51
2023-01-11T10:33:44.061Z,987.55
2023-01-11T10:34:45.820Z,987.51
2023-01-11T10:35:47.554Z,987.6
2023-01-11T10:36:49.260Z,987.59
2023-01-11T10:37:51.000Z,987.67
2023-01-11T10:38:52.764Z,987.65
2023-01-11T10:39:54.463Z,987.61
2023-01-11T10:40:56.195Z,987.49
2023-01-11T10:41:57.932Z,987.51
2023-01-11T10:42:59.679Z,987.49
2023-01-11T10:44:01.424Z,987.48
2023-01-11T10:45:03.137Z,987.53
2023-01-11T10:46:04.962Z,987.55
2023-01-11T10:47:06.594Z,987.51
2023-01-11T10:48:08.342Z,987.54
2023-01-11T10:49:10.106Z,987.62
2023-01-11T10:50:11.854Z,987.61
2023-01-11T10:51:13.539Z,987.62
2023-01-11T10:52:15.328Z,987.59
2023-01-11T10:53:17.060Z,987.56
2023-01-11T10:54:18.787Z,987.55
2023-01-11T10:55:20.482Z,987.52
2023-01-11T10:56:22.204Z,987.51
2023-01-11T10:57:23.975Z,987.51
2023-01-11T10:58:25.670Z,987.51
2023-01-11T10:59:27.423Z,987.51
2023-01-11T11:00:29.178Z,987.59
2023-01-11T11:01:30.918Z,987.58
2023-01-11T11:02:32.789Z,987.57
2023-01-11T11:03:34.388Z,987.63
2023-01-11T11:04:36.110Z,987.58
2023-01-11T11:05:37.901Z,987.61
2023-01-11T11:06:39.565Z,987.54
2023-01-11T11:07:41.303Z,987.5
2023-01-11T11:08:43.014Z,987.49
2023-01-11T11:09:44.801Z,987.44
2023-01-11T11:10:46.491Z,987.48
2023-01-11T11:11:48.246Z,987.48
2023-01-11T11:12:49.940Z,987.45
2023-01-11T11:13:51.702Z,987.42
2023-01-11T11:14:53.459Z,987.43
2023-01-11T11:15:55.326Z,987.38
2023-01-11T11:16:56.911Z,987.32
2023-01-11T11:17:58.632Z,987.3
2023-01-11T11:19:00.378Z,987.29
2023-01-11T11:20:02.135Z,987.27
2023-01-11T11:21:03.875Z,987.28
2023-01-11T11:22:05.583Z,987.31
2023-01-11T11:23:07.311Z,987.31
2023-01-11T11:24:09.048Z,987.32
2023-01-11T11:25:10.764Z,987.3
2023-01-11T11:26:12.641Z,987.28
2023-01-11T11:27:14.336Z,987.33
2023-01-11T11:28:15.975Z,987.35
2023-01-11T11:29:17.707Z,987.34
2023-01-11T11:30:19.537Z,987.32
2023-01-11T11:31:21.257Z,987.34
2023-01-11T11:32:22.915Z,987.36
2023-01-11T11:33:24.643Z,987.34
2023-01-11T11:34:26.358Z,987.38
2023-01-11T11:35:28.129Z,987.43
2023-01-11T11:36:29.837Z,987.41
2023-01-11T11:37:31.587Z,987.44
2023-01-11T11:38:33.305Z,987.39
2023-01-11T11:39:35.054Z,987.43
2023-01-11T11:40:36.776Z,987.44
2023-01-11T11:41:38.515Z,987.41
2023-01-11T11:42:40.270Z,987.42
2023-01-11T11:43:41.982Z,987.48
2023-01-11T11:44:43.717Z,987.45
2023-01-11T11:45:45.496Z,987.5
2023-01-11T11:46:47.214Z,987.46
2023-01-11T11:47:48.920Z,987.46
2023-01-11T11:48:50.645Z,987.45
2023-01-11T11:49:52.382Z,987.49
2023-01-11T11:50:54.141Z,987.48
2023-01-11T11:51:55.860Z,987.51
2023-01-11T11:52:58.592Z,987.5
2023-01-11T11:53:59.323Z,987.49
2023-01-11T11:55:01.054Z,987.5
2023-01-11T11:56:02.787Z,987.43
2023-01-11T11:57:04.554Z,987.45
2023-01-11T11:58:06.284Z,987.52
2023-01-11T11:59:07.994Z,987.54
2023-01-11T12:00:09.720Z,987.51
2023-01-11T12:01:11.466Z,987.58
2023-01-11T12:02:13.235Z,987.64
2023-01-11T12:03:14.947Z,987.63
2023-01-11T12:04:16.654Z,987.61
2023-01-11T12:05:18.471Z,987.63
2023-01-11T12:06:20.151Z,987.66
2023-01-11T12:07:21.861Z,987.64
2023-01-11T12:08:23.604Z,987.6
2023-01-11T12:09:25.408Z,987.69
2023-01-11T12:10:27.123Z,987.66
2023-01-11T12:11:28.803Z,987.69
2023-01-11T12:12:30.520Z,987.75
2023-01-11T12:13:32.273Z,987.75
2023-01-11T12:14:33.994Z,987.74
2023-01-11T12:15:35.726Z,987.71
2023-01-11T12:16:37.515Z,987.65
2023-01-11T12:17:39.206Z,987.63
2023-01-11T12:18:40.932Z,987.66
2023-01-11T12:19:42.716Z,987.59
2023-01-11T12:20:44.410Z,987.63
2023-01-11T12:21:46.154Z,987.61
2023-01-11T12:22:47.888Z,987.62
2023-01-11T12:23:49.648Z,987.63
2023-01-11T12:24:51.350Z,987.65
2023-01-11T12:25:53.090Z,987.63
2023-01-11T12:26:55.012Z,987.63
2023-01-11T12:27:56.545Z,987.64
2023-01-11T12:28:58.359Z,987.69
2023-01-11T12:30:00.035Z,987.66
2023-01-11T12:31:01.860Z,987.71
2023-01-11T12:32:03.517Z,987.67
2023-01-11T12:33:05.219Z,987.66
2023-01-11T12:34:06.959Z,987.69
2023-01-11T12:35:08.695Z,987.64
2023-01-11T12:36:10.427Z,987.67
2023-01-11T12:37:12.155Z,987.69
2023-01-11T12:38:13.962Z,987.79
2023-01-11T12:39:15.636Z,987.79
2023-01-11T12:40:17.377Z,987.84
2023-01-11T12:41:19.112Z,987.87
2023-01-11T12:42:20.832Z,987.91
2023-01-11T12:43:22.581Z,987.95
2023-01-11T12:44:24.292Z,987.89
2023-01-11T12:45:26.033Z,987.86
2023-01-11T12:46:27.874Z,987.83
2023-01-11T12:47:29.517Z,987.8
2023-01-11T12:48:31.239Z,987.76
2023-01-11T12:49:32.970Z,987.83
2023-01-11T12:50:34.697Z,987.87
2023-01-11T12:51:36.469Z,987.88
2023-01-11T12:52:38.183Z,987.85
2023-01-11T12:53:39.898Z,987.86
2023-01-11T12:54:41.636Z,987.93
2023-01-11T12:55:43.404Z,987.97
2023-01-11T12:56:45.137Z,987.99
2023-01-11T12:57:46.835Z,988.06
2023-01-11T12:58:48.675Z,988.04
2023-01-11T12:59:50.315Z,988.06